Ardmore, Maryland
Current Conditions -  °F | °C
As of 10:15 AM on Saturday 25 Oct 2014 (Local Time) from KCGS Reporting Station
Clear Clear  
Wind Chill: 61°   Ceiling: Unl
Heat Index: 61°   Visibility: 10mi
Dew Point: 41°   Wind: 5mph
Humidity: 48%   Direction: 250°WSW
Pressure: 29.96"   Gusts: NA
Location:  38.9183°N, 76.8721°W
Report Text: KCGS 251415Z AUTO 25004KT 10SM CLR 16/05 A2996 RMK AO1
Loading
Personal Weather Stations






























Interactive Weather Map
Tropical Storm Tracking
New forecast layout! Learn more

10-Day Weather Forecast

Advertisements
Track Severe Weather on mobile